createdAt,value
2022-08-14T00:03:53.310Z,24.40
2022-08-14T00:09:01.656Z,22.40
2022-08-14T00:14:10.184Z,25.70
2022-08-14T00:19:24.557Z,27.50
2022-08-14T00:24:34.565Z,21.90
2022-08-14T00:29:43.125Z,22.70
2022-08-14T00:34:50.117Z,17.80
2022-08-14T00:39:58.371Z,25.10
2022-08-14T00:45:11.565Z,21.10
2022-08-14T00:50:23.165Z,21.40
2022-08-14T00:55:36.148Z,21.30
2022-08-14T01:00:50.842Z,23.90
2022-08-14T01:06:00.575Z,25.10
2022-08-14T01:11:09.632Z,28.30
2022-08-14T01:16:20.654Z,26.60
2022-08-14T01:21:38.783Z,26.90
2022-08-14T01:26:54.573Z,28.20
2022-08-14T01:32:04.275Z,22.30
2022-08-14T01:37:11.760Z,26.00
2022-08-14T01:42:30.981Z,26.10
2022-08-14T01:47:39.493Z,30.40
2022-08-14T01:52:58.395Z,24.30
2022-08-14T01:58:18.423Z,34.60
2022-08-14T02:03:30.982Z,30.40
2022-08-14T02:08:38.493Z,36.20
2022-08-14T02:14:07.497Z,32.30
2022-08-14T02:19:18.397Z,31.70
2022-08-14T02:24:38.807Z,30.50
2022-08-14T02:30:00.171Z,32.60
2022-08-14T02:35:18.207Z,28.10
2022-08-14T02:40:32.412Z,38.00
2022-08-14T02:45:45.150Z,29.20
2022-08-14T02:50:53.546Z,30.30
2022-08-14T02:56:03.020Z,31.60
2022-08-14T03:01:31.275Z,34.50
2022-08-14T03:07:06.527Z,31.80
2022-08-14T03:12:26.845Z,33.80
2022-08-14T03:17:41.074Z,30.90
2022-08-14T03:23:05.364Z,29.80
2022-08-14T03:28:29.679Z,33.80
2022-08-14T03:33:42.116Z,39.70
2022-08-14T03:39:15.529Z,35.70
2022-08-14T03:45:25.217Z,31.90
2022-08-14T03:49:50.238Z,33.50
2022-08-14T03:54:57.781Z,30.50
2022-08-14T04:00:07.236Z,33.10
2022-08-14T04:05:21.292Z,31.40
2022-08-14T04:10:32.528Z,39.00
2022-08-14T04:15:56.370Z,37.60
2022-08-14T04:21:08.380Z,37.00
2022-08-14T04:26:27.475Z,35.70
2022-08-14T04:33:10.696Z,36.90
2022-08-14T04:37:32.977Z,27.80
2022-08-14T04:42:58.017Z,32.00
2022-08-14T04:48:39.414Z,38.20
2022-08-14T04:53:44.023Z,29.10
2022-08-14T04:58:57.800Z,25.90
2022-08-14T05:04:05.662Z,28.60
2022-08-14T05:09:14.568Z,24.70
2022-08-14T05:14:43.280Z,23.60
2022-08-14T05:21:05.033Z,21.60
2022-08-14T05:25:18.061Z,19.70
2022-08-14T05:30:25.468Z,18.40
2022-08-14T05:35:33.722Z,22.10
2022-08-14T05:40:43.099Z,12.40
2022-08-14T05:45:50.199Z,16.00
2022-08-14T05:50:58.286Z,12.20
2022-08-14T05:56:06.378Z,9.60
2022-08-14T06:01:13.937Z,9.90
2022-08-14T06:06:22.565Z,9.00
2022-08-14T06:11:31.373Z,7.40
2022-08-14T06:16:38.958Z,7.60
2022-08-14T06:21:48.155Z,7.80
2022-08-14T06:27:03.744Z,6.00
2022-08-14T06:32:36.670Z,6.50
2022-08-14T06:37:48.997Z,6.30
2022-08-14T06:43:00.294Z,7.40
2022-08-14T06:48:17.176Z,6.80
2022-08-14T06:53:27.484Z,6.50
2022-08-14T06:58:35.600Z,7.00
2022-08-14T07:04:01.641Z,7.60
2022-08-14T07:09:10.893Z,7.90
2022-08-14T07:14:17.883Z,6.70
2022-08-14T07:19:24.993Z,7.60
2022-08-14T07:24:32.127Z,7.90
2022-08-14T07:29:39.345Z,8.90
2022-08-14T07:34:47.630Z,9.00
2022-08-14T07:39:55.536Z,10.30
2022-08-14T07:45:03.270Z,8.30
2022-08-14T07:50:18.605Z,7.60
2022-08-14T07:55:29.098Z,9.40
2022-08-14T08:00:36.049Z,7.50
2022-08-14T08:05:46.864Z,9.10
2022-08-14T08:11:02.448Z,8.00
2022-08-14T08:16:10.757Z,9.10
2022-08-14T08:21:19.201Z,8.90
2022-08-14T08:26:32.335Z,10.30
2022-08-14T08:31:52.118Z,10.80
2022-08-14T08:37:05.170Z,9.80
2022-08-14T08:42:14.476Z,10.50
2022-08-14T08:47:21.727Z,11.10
2022-08-14T08:52:31.883Z,11.30
2022-08-14T08:57:39.614Z,12.00
2022-08-14T09:02:57.869Z,12.00
2022-08-14T09:08:30.720Z,14.50
2022-08-14T09:13:39.216Z,12.10
2022-08-14T09:18:49.833Z,16.60
2022-08-14T09:24:28.156Z,17.00
2022-08-14T09:29:28.924Z,22.90
2022-08-14T09:34:58.426Z,16.50
2022-08-14T09:40:20.711Z,19.00
2022-08-14T09:45:39.685Z,17.70
2022-08-14T09:50:53.003Z,18.10
2022-08-14T09:56:04.473Z,17.10
2022-08-14T10:01:22.632Z,20.30
2022-08-14T10:06:33.049Z,16.10
2022-08-14T10:11:43.508Z,17.30
2022-08-14T10:16:55.397Z,19.00
2022-08-14T10:23:12.445Z,16.60
2022-08-14T10:27:34.815Z,13.50
2022-08-14T10:32:49.679Z,12.80
2022-08-14T10:38:07.397Z,13.10
2022-08-14T10:43:26.419Z,11.00
2022-08-14T10:48:38.320Z,10.20
2022-08-14T10:53:57.614Z,9.50
2022-08-14T10:59:08.134Z,7.10
2022-08-14T11:04:32.297Z,8.80
2022-08-14T11:09:42.974Z,10.50
2022-08-14T11:15:02.097Z,8.40
2022-08-14T11:20:16.207Z,8.40
2022-08-14T11:25:43.882Z,8.70
2022-08-14T11:30:54.682Z,7.90
2022-08-14T11:36:17.891Z,12.10
2022-08-14T11:41:27.322Z,10.80
2022-08-14T11:46:37.731Z,10.50
2022-08-14T11:51:56.558Z,11.00
2022-08-14T11:57:14.901Z,8.90
2022-08-14T12:03:01.780Z,10.90
2022-08-14T12:07:55.192Z,10.20
2022-08-14T12:13:12.019Z,11.20
2022-08-14T12:18:20.016Z,9.90
2022-08-14T12:23:28.077Z,9.70
2022-08-14T12:29:00.149Z,9.10
2022-08-14T12:34:10.164Z,9.80
2022-08-14T12:39:24.785Z,12.90
2022-08-14T12:44:39.404Z,9.00
2022-08-14T12:49:57.564Z,12.10
2022-08-14T12:55:09.634Z,10.20
2022-08-14T13:00:23.113Z,12.00
2022-08-14T13:05:32.759Z,15.20
2022-08-14T13:10:51.294Z,17.30
2022-08-14T13:16:00.164Z,17.10
2022-08-14T13:21:08.132Z,14.90
2022-08-14T13:26:34.209Z,15.70
2022-08-14T13:31:47.388Z,13.50
2022-08-14T13:37:03.639Z,15.40
2022-08-14T13:42:15.077Z,13.40
2022-08-14T13:47:24.031Z,14.90
2022-08-14T13:52:51.898Z,15.10
2022-08-14T13:58:05.233Z,15.50
2022-08-14T14:03:12.919Z,15.60
2022-08-14T14:08:47.057Z,15.10
2022-08-14T14:13:49.473Z,14.80
2022-08-14T14:19:09.126Z,17.90
2022-08-14T14:24:17.570Z,15.80
2022-08-14T14:29:27.289Z,16.00
2022-08-14T14:34:38.124Z,17.20
2022-08-14T14:40:52.818Z,16.90
2022-08-14T14:45:19.759Z,16.90
2022-08-14T14:50:27.178Z,19.40
2022-08-14T14:55:43.092Z,19.80
2022-08-14T15:01:06.136Z,18.80
2022-08-14T15:06:17.552Z,18.10
2022-08-14T15:11:26.480Z,21.20
2022-08-14T15:16:38.283Z,20.20
2022-08-14T15:21:45.911Z,21.70
2022-08-14T15:26:58.502Z,20.70
2022-08-14T15:32:08.776Z,21.30
2022-08-14T15:37:16.897Z,18.70
2022-08-14T15:42:25.212Z,21.30
2022-08-14T15:47:36.071Z,19.20
2022-08-14T15:58:14.409Z,24.20
2022-08-14T16:03:27.280Z,22.10
2022-08-14T16:08:43.151Z,20.70
2022-08-14T16:13:51.580Z,24.90
2022-08-14T16:19:07.511Z,20.70
2022-08-14T16:24:27.985Z,24.90
2022-08-14T16:29:38.594Z,25.60
2022-08-14T16:34:48.485Z,20.90
2022-08-14T16:39:59.672Z,21.50
2022-08-14T16:45:09.523Z,27.40
2022-08-14T16:50:40.564Z,23.40
2022-08-14T16:55:53.492Z,23.20
2022-08-14T17:01:24.554Z,25.40
2022-08-14T17:06:55.949Z,24.10
2022-08-14T17:12:07.160Z,25.70
2022-08-14T17:17:15.617Z,23.60
2022-08-14T17:22:22.511Z,24.90
2022-08-14T17:27:34.056Z,25.20
2022-08-14T17:32:44.525Z,25.50
2022-08-14T17:38:38.541Z,27.20
2022-08-14T17:43:42.123Z,27.70
2022-08-14T17:49:15.560Z,28.40
2022-08-14T17:54:22.518Z,28.80
2022-08-14T17:59:43.860Z,27.20
2022-08-14T18:04:51.779Z,27.50
2022-08-14T18:10:52.336Z,26.30
2022-08-14T18:15:37.290Z,26.10
2022-08-14T18:21:42.048Z,30.10
2022-08-14T18:26:35.994Z,29.30
2022-08-14T18:31:41.968Z,29.50
2022-08-14T18:36:57.146Z,28.90
2022-08-14T18:42:39.868Z,31.70
2022-08-14T18:48:15.754Z,30.80
2022-08-14T18:53:34.014Z,35.30
2022-08-14T18:58:57.262Z,34.60
2022-08-14T19:04:08.412Z,32.00
2022-08-14T19:09:50.336Z,35.30
2022-08-14T19:15:11.844Z,35.00
2022-08-14T19:20:22.301Z,33.40
2022-08-14T19:25:52.694Z,37.90
2022-08-14T19:31:42.235Z,34.80
2022-08-14T19:37:05.682Z,36.80
2022-08-14T19:42:28.538Z,40.20
2022-08-14T19:47:41.519Z,39.10
2022-08-14T19:52:49.044Z,38.00
2022-08-14T19:57:59.449Z,38.30
2022-08-14T20:03:11.965Z,37.50
2022-08-14T20:10:59.556Z,40.90
2022-08-14T20:14:01.268Z,38.50
2022-08-14T20:19:17.809Z,35.10
2022-08-14T20:24:31.561Z,33.80
2022-08-14T20:29:40.744Z,36.90
2022-08-14T20:34:51.461Z,39.00
2022-08-14T20:39:59.069Z,41.40
2022-08-14T20:45:23.936Z,34.70
2022-08-14T20:50:32.261Z,31.20
2022-08-14T20:55:45.323Z,32.80
2022-08-14T21:01:00.846Z,30.00
2022-08-14T21:06:17.358Z,32.30
2022-08-14T21:11:30.647Z,31.40
2022-08-14T21:16:58.004Z,33.40
2022-08-14T21:22:05.314Z,32.40
2022-08-14T21:27:20.079Z,33.60
2022-08-14T21:32:50.373Z,34.30
2022-08-14T21:38:05.681Z,35.20
2022-08-14T21:43:18.054Z,34.80
2022-08-14T21:48:29.573Z,33.90
2022-08-14T21:53:58.183Z,32.70
2022-08-14T21:59:06.191Z,31.70
2022-08-14T22:04:32.877Z,31.30
2022-08-14T22:09:43.056Z,31.60
2022-08-14T22:14:50.340Z,30.10
2022-08-14T22:19:58.463Z,27.60
2022-08-14T22:25:07.168Z,27.40
2022-08-14T22:30:18.534Z,30.80
2022-08-14T22:35:25.935Z,29.10
2022-08-14T22:40:59.954Z,25.70
2022-08-14T22:46:02.292Z,25.60
2022-08-14T22:51:10.039Z,26.00
2022-08-14T22:56:29.532Z,27.40
2022-08-14T23:01:56.867Z,23.80
2022-08-14T23:07:21.884Z,30.10
2022-08-14T23:12:35.004Z,22.20
2022-08-14T23:17:44.781Z,25.50
2022-08-14T23:22:56.863Z,24.30
2022-08-14T23:28:05.115Z,24.50
2022-08-14T23:33:18.492Z,28.30
2022-08-14T23:38:31.006Z,26.20
2022-08-14T23:43:42.595Z,28.10
2022-08-14T23:48:52.697Z,27.40
2022-08-14T23:54:00.724Z,31.50
2022-08-14T23:59:10.533Z,28.30
